Time;durP1;ratioP1;P1;durP2;ratioP2;P2;SDS_P1;SDS_P2;PMS_P1;PMS_P2;Temp;Humidity;BMP_temperature;BMP_pressure;BME280_temperature;BME280_humidity;BME280_pressure;Samples;Min_cycle;Max_cycle;Signal;HPM_P1;HPM_P2
2023/03/24 05:22:32;;;;;;;13.27;5.68;;;;;;;12.00;100.00;99238.63;5109804;27;20363;-65
2023/03/24 05:24:58;;;;;;;10.68;5.05;;;;;;;12.05;100.00;99229.97;5108515;28;20048;-66
2023/03/24 05:27:24;;;;;;;17.70;6.20;;;;;;;12.04;100.00;99239.81;5108090;28;20389;-66
2023/03/24 05:29:50;;;;;;;12.27;5.70;;;;;;;12.07;100.00;99225.25;5108385;28;20423;-65
2023/03/24 05:32:21;;;;;;;11.45;5.43;;;;;;;12.11;100.00;99227.28;5108215;28;20027;-67
2023/03/24 05:34:46;;;;;;;13.85;6.65;;;;;;;12.14;100.00;99220.72;5107605;27;20105;-66
2023/03/24 05:37:15;;;;;;;14.82;6.40;;;;;;;12.15;100.00;99215.19;5107800;28;20526;-66
2023/03/24 05:39:44;;;;;;;13.02;6.25;;;;;;;12.14;100.00;99216.22;5108266;28;20496;-66
2023/03/24 05:42:26;;;;;;;13.05;5.75;;;;;;;12.11;100.00;99205.94;5108094;28;20043;-65
2023/03/24 05:44:51;;;;;;;13.50;5.55;;;;;;;12.17;100.00;99197.09;5108225;28;20036;-65
2023/03/24 05:47:24;;;;;;;12.05;6.07;;;;;;;12.17;100.00;99207.78;5107894;28;20070;-65
2023/03/24 05:49:50;;;;;;;12.73;5.63;;;;;;;12.16;100.00;99197.31;5108035;28;20069;-66
2023/03/24 05:52:19;;;;;;;12.98;6.38;;;;;;;12.12;100.00;99196.88;5108029;28;20032;-66
2023/03/24 05:54:48;;;;;;;10.90;5.78;;;;;;;12.18;100.00;99197.91;5107951;28;20035;-68
2023/03/24 05:57:19;;;;;;;10.73;5.75;;;;;;;12.21;100.00;99186.81;5100054;28;20024;-66
2023/03/24 06:00:09;;;;;;;11.35;5.47;;;;;;;12.22;100.00;99181.28;5088747;28;20059;-67
2023/03/24 06:02:45;;;;;;;14.50;6.55;;;;;;;12.27;100.00;99187.84;5098323;28;20044;-66
2023/03/24 06:05:25;;;;;;;12.50;6.07;;;;;;;12.32;100.00;99180.81;5087384;28;20497;-66
2023/03/24 06:07:50;;;;;;;14.43;6.07;;;;;;;12.33;100.00;99187.00;5087079;28;20066;-66
2023/03/24 06:10:17;;;;;;;13.27;6.25;;;;;;;12.33;100.00;99177.16;5088656;28;20107;-66
2023/03/24 06:12:47;;;;;;;13.52;6.85;;;;;;;12.37;100.00;99178.34;5087007;28;20028;-67
2023/03/24 06:15:16;;;;;;;12.30;4.88;;;;;;;12.45;100.00;99177.28;5087036;28;20043;-66
2023/03/24 06:17:43;;;;;;;12.02;5.80;;;;;;;12.46;100.00;99178.94;5086778;28;20119;-66
2023/03/24 06:20:21;;;;;;;17.90;6.75;;;;;;;12.47;100.00;99194.75;5087055;28;20043;-67
2023/03/24 06:22:58;;;;;;;12.30;6.50;;;;;;;12.50;100.00;99207.69;5087113;28;20040;-66
2023/03/24 06:25:28;;;;;;;12.93;6.78;;;;;;;12.51;100.00;99203.16;5087090;28;20412;-66
2023/03/24 06:28:11;;;;;;;13.10;6.05;;;;;;;12.52;100.00;99206.63;5086659;28;20092;-64
2023/03/24 06:30:37;;;;;;;10.18;5.55;;;;;;;12.58;100.00;99211.16;5086908;28;20440;-66
2023/03/24 06:33:04;;;;;;;13.23;5.93;;;;;;;12.65;100.00;99211.94;5078128;28;20155;-66
2023/03/24 06:35:30;;;;;;;11.20;5.32;;;;;;;12.62;100.00;99223.06;5074701;28;20111;-66
2023/03/24 06:38:05;;;;;;;9.18;5.32;;;;;;;12.62;100.00;99228.41;5072944;28;20136;-66
2023/03/24 06:40:32;;;;;;;10.07;5.43;;;;;;;12.66;100.00;99233.13;5073388;28;20040;-66
2023/03/24 06:42:57;;;;;;;9.45;4.78;;;;;;;12.66;100.00;99234.97;5073222;28;20381;-66
2023/03/24 06:45:23;;;;;;;11.57;5.38;;;;;;;12.64;100.00;99243.19;5073065;28;20066;-57
2023/03/24 06:47:56;;;;;;;11.75;5.68;;;;;;;12.70;100.00;99253.03;5072763;28;20060;-58
2023/03/24 06:50:25;;;;;;;14.23;5.45;;;;;;;12.64;100.00;99245.84;5073004;28;20044;-56
2023/03/24 06:52:52;;;;;;;8.02;4.65;;;;;;;12.64;100.00;99245.84;5073062;28;20032;-58
2023/03/24 06:55:21;;;;;;;12.00;5.18;;;;;;;12.61;100.00;99251.63;5072900;28;20127;-59
2023/03/24 06:57:49;;;;;;;8.48;4.32;;;;;;;12.53;100.00;99249.19;5072755;28;20040;-57
2023/03/24 07:00:37;;;;;;;10.07;5.28;;;;;;;12.45;100.00;99250.25;5073662;28;20515;-66
2023/03/24 07:03:17;;;;;;;9.25;4.50;;;;;;;12.42;100.00;99260.50;5072887;28;20558;-66
2023/03/24 07:05:59;;;;;;;10.52;4.78;;;;;;;12.40;100.00;99255.38;5072833;28;20040;-66
2023/03/24 07:08:26;;;;;;;9.02;4.65;;;;;;;12.43;100.00;99262.16;5072470;28;20120;-66
2023/03/24 07:10:56;;;;;;;9.52;5.07;;;;;;;12.37;100.00;99269.13;5074173;28;20048;-66
2023/03/24 07:13:22;;;;;;;12.13;4.35;;;;;;;12.36;100.00;99266.69;5072672;28;20489;-66
2023/03/24 07:15:48;;;;;;;7.00;4.50;;;;;;;12.31;100.00;99271.81;5072534;28;20125;-66
2023/03/24 07:18:13;;;;;;;14.48;5.47;;;;;;;12.32;100.00;99276.13;5072118;28;20127;-66
2023/03/24 07:20:41;;;;;;;9.38;4.90;;;;;;;12.30;100.00;99268.34;5072455;28;20053;-66
2023/03/24 07:23:12;;;;;;;10.90;4.70;;;;;;;12.28;100.00;99270.41;5072709;28;20068;-66
2023/03/24 07:25:50;;;;;;;10.55;4.97;;;;;;;12.22;100.00;99276.56;5072563;28;20071;-65
2023/03/24 07:28:23;;;;;;;8.38;5.63;;;;;;;12.20;100.00;99281.31;5072232;28;20076;-66
2023/03/24 07:30:48;;;;;;;12.93;5.07;;;;;;;12.18;100.00;99286.00;5072264;28;20029;-66
2023/03/24 07:33:18;;;;;;;11.90;5.90;;;;;;;12.17;100.00;99285.19;5072250;28;20033;-65
2023/03/24 07:35:43;;;;;;;11.10;5.32;;;;;;;12.14;100.00;99279.47;5072169;28;20037;-66
2023/03/24 07:38:09;;;;;;;9.88;5.07;;;;;;;12.10;100.00;99276.38;5071905;28;20021;-66
2023/03/24 07:40:35;;;;;;;9.82;5.22;;;;;;;12.11;100.00;99272.66;5073466;28;20489;-65
2023/03/24 07:43:04;;;;;;;11.70;5.60;;;;;;;12.14;100.00;99269.59;5072035;28;20115;-65
2023/03/24 07:45:30;;;;;;;11.13;5.05;;;;;;;12.11;100.00;99253.97;5072553;28;20044;-65
2023/03/24 07:48:00;;;;;;;10.73;4.55;;;;;;;12.14;100.00;99258.09;5071741;28;20033;-66
2023/03/24 07:50:27;;;;;;;10.32;4.53;;;;;;;12.11;100.00;99253.16;5071864;28;20558;-65
2023/03/24 07:52:53;;;;;;;7.35;3.83;;;;;;;12.20;100.00;99252.75;5071925;28;20537;-66
2023/03/24 07:55:19;;;;;;;9.55;4.53;;;;;;;12.29;100.00;99239.19;5071773;28;20060;-66
2023/03/24 07:58:04;;;;;;;8.95;4.80;;;;;;;12.31;100.00;99216.56;5072875;28;20054;-66
2023/03/24 08:00:31;;;;;;;8.35;3.88;;;;;;;12.36;100.00;99183.91;5071892;28;20400;-66
2023/03/24 08:03:13;;;;;;;6.45;3.45;;;;;;;12.44;100.00;99221.06;5071786;28;20043;-66
2023/03/24 08:06:02;;;;;;;4.82;3.25;;;;;;;12.47;100.00;99245.50;5071570;28;20540;-66
2023/03/24 08:08:30;;;;;;;6.38;3.25;;;;;;;12.52;100.00;99233.34;5072646;28;20524;-66
2023/03/24 08:10:56;;;;;;;14.63;3.90;;;;;;;12.56;100.00;99223.91;5072844;28;20033;-65
2023/03/24 08:13:21;;;;;;;4.35;3.30;;;;;;;12.57;100.00;99231.69;5072806;28;20443;-66
2023/03/24 08:15:47;;;;;;;7.47;3.20;;;;;;;12.65;100.00;99241.31;5072705;28;20162;-66
2023/03/24 08:18:13;;;;;;;7.03;3.40;;;;;;;12.72;100.00;99234.94;5072424;28;20036;-66
2023/03/24 08:20:38;;;;;;;9.13;3.22;;;;;;;12.70;100.00;99223.63;5072458;28;20044;-66
2023/03/24 08:23:05;;;;;;;7.70;3.28;;;;;;;12.92;100.00;99239.38;5072771;28;20041;-66
2023/03/24 08:25:30;;;;;;;5.53;3.85;;;;;;;12.95;100.00;99242.44;5072121;28;20462;-66
2023/03/24 08:27:56;;;;;;;5.22;3.00;;;;;;;13.05;100.00;99223.28;5071651;28;20067;-66
2023/03/24 08:30:25;;;;;;;6.82;2.95;;;;;;;13.10;100.00;99228.78;5072436;28;20059;-66
2023/03/24 08:32:58;;;;;;;4.78;2.67;;;;;;;13.20;100.00;99231.88;5072365;28;20032;-66
2023/03/24 08:35:30;;;;;;;4.60;2.78;;;;;;;13.28;100.00;99239.63;5072205;28;20111;-66
2023/03/24 08:37:58;;;;;;;5.53;2.38;;;;;;;13.26;100.00;99240.88;5072049;28;20093;-66
2023/03/24 08:40:24;;;;;;;;;;;;;;;13.34;100.00;99247.84;5072886;28;20069;-66
2023/03/24 08:42:56;;;;;;;6.93;3.05;;;;;;;13.26;100.00;99257.75;5072255;28;19920;-66
2023/03/24 08:45:26;;;;;;;7.45;3.53;;;;;;;13.39;100.00;99256.84;5072320;28;20044;-66
2023/03/24 08:47:52;;;;;;;3.85;2.80;;;;;;;13.39;100.00;99251.50;5071843;28;20043;-66
2023/03/24 08:50:21;;;;;;;5.32;2.88;;;;;;;13.50;100.00;99256.16;5072090;28;20485;-66
2023/03/24 08:52:47;;;;;;;3.92;2.22;;;;;;;13.61;100.00;99254.63;5072302;28;20040;-66
2023/03/24 08:55:14;;;;;;;5.00;2.47;;;;;;;13.60;100.00;99253.00;5071865;28;20036;-66
2023/03/24 08:57:39;;;;;;;5.00;2.83;;;;;;;13.69;100.00;99251.72;5072053;28;20457;-66
2023/03/24 09:00:14;;;;;;;6.63;2.92;;;;;;;13.71;100.00;99249.63;5072224;28;20123;-67
2023/03/24 09:02:45;;;;;;;8.75;3.13;;;;;;;13.79;100.00;99262.75;5072156;28;20068;-66
2023/03/24 09:05:11;;;;;;;4.32;2.17;;;;;;;13.89;100.00;99266.78;5072119;28;20452;-66
2023/03/24 09:07:37;;;;;;;7.55;2.83;;;;;;;13.85;100.00;99271.75;5071854;28;20372;-66
2023/03/24 09:10:07;;;;;;;6.28;2.97;;;;;;;13.73;100.00;99262.78;5072045;28;20033;-66
2023/03/24 09:12:34;;;;;;;3.92;2.60;;;;;;;13.74;100.00;99261.75;5072105;28;20063;-66
2023/03/24 09:14:59;;;;;;;7.57;3.33;;;;;;;13.76;100.00;99268.53;5072073;28;20137;-66
2023/03/24 09:17:24;;;;;;;4.63;3.45;;;;;;;13.84;100.00;99254.88;5071591;28;20584;-64
2023/03/24 09:19:50;;;;;;;4.85;2.92;;;;;;;13.93;100.00;99254.59;5070773;28;20429;-66
2023/03/24 09:22:16;;;;;;;7.07;3.30;;;;;;;13.96;100.00;99262.22;5072034;28;20477;-66
2023/03/24 09:24:43;;;;;;;8.73;3.58;;;;;;;14.01;100.00;99246.28;5072156;28;20036;-66
2023/03/24 09:27:09;;;;;;;6.68;3.30;;;;;;;14.05;100.00;99255.53;5071483;28;20040;-66
2023/03/24 09:29:34;;;;;;;9.30;3.25;;;;;;;14.08;100.00;99261.28;5071713;28;20750;-66
2023/03/24 09:32:00;;;;;;;4.25;2.90;;;;;;;14.09;100.00;99259.44;5071710;28;20043;-66
2023/03/24 09:34:26;;;;;;;6.88;2.90;;;;;;;14.10;100.00;99250.34;5071741;28;20044;-66
2023/03/24 09:36:51;;;;;;;4.78;2.72;;;;;;;14.15;100.00;99233.59;5071614;28;20037;-66
2023/03/24 09:39:17;;;;;;;5.65;3.05;;;;;;;14.15;100.00;99229.09;5071587;28;20557;-66
2023/03/24 09:41:47;;;;;;;4.47;2.80;;;;;;;14.24;100.00;99226.94;5071809;28;20082;-66
2023/03/24 09:44:25;;;;;;;7.88;3.28;;;;;;;14.37;100.00;99226.78;5071707;28;20066;-66
2023/03/24 09:47:05;;;;;;;4.60;2.90;;;;;;;14.51;100.00;99230.19;5071549;28;20033;-66
2023/03/24 09:49:36;;;;;;;7.90;2.97;;;;;;;14.63;100.00;99242.59;5071742;28;20043;-66
2023/03/24 09:52:06;;;;;;;4.15;2.63;;;;;;;14.73;98.38;99236.72;5071650;28;20036;-66
2023/03/24 09:54:50;;;;;;;5.20;2.83;;;;;;;14.81;98.83;99249.84;5071483;28;20033;-66
2023/03/24 09:57:23;;;;;;;5.40;2.33;;;;;;;14.90;97.00;99261.06;5071204;28;20119;-66
2023/03/24 09:59:49;;;;;;;4.45;2.75;;;;;;;14.94;94.51;99254.22;5070223;28;20485;-66
2023/03/24 10:02:17;;;;;;;3.80;2.10;;;;;;;14.91;94.12;99242.06;5071348;28;20090;-66
2023/03/24 10:04:43;;;;;;;4.30;2.00;;;;;;;14.89;93.95;99244.16;5071725;28;20377;-66
2023/03/24 10:07:26;;;;;;;4.60;2.10;;;;;;;14.78;92.93;99244.91;5071160;28;20054;-66
2023/03/24 10:10:00;;;;;;;3.80;2.28;;;;;;;14.71;92.72;99259.44;5075207;28;20032;-66
2023/03/24 10:12:36;;;;;;;2.78;1.85;;;;;;;14.72;92.50;99251.16;5075160;28;20041;-66
2023/03/24 10:15:07;;;;;;;3.70;2.53;;;;;;;14.80;93.30;99260.75;5075218;28;20420;-66
2023/03/24 10:17:39;;;;;;;3.95;2.08;;;;;;;14.82;93.61;99262.19;5074646;28;20032;-66
2023/03/24 10:20:25;;;;;;;4.97;2.35;;;;;;;14.88;91.97;99253.25;5074907;28;20087;-66
2023/03/24 10:22:57;;;;;;;4.30;1.92;;;;;;;14.98;91.04;99254.56;5074984;28;20068;-66
2023/03/24 10:25:55;;;;;;;4.72;2.38;;;;;;;14.99;90.56;99266.94;5074797;28;20032;-66
2023/03/24 10:28:46;;;;;;;3.63;1.80;;;;;;;15.02;89.96;99274.53;5074619;28;20028;-65
2023/03/24 10:31:15;;;;;;;2.40;1.85;;;;;;;15.08;89.72;99271.78;5074525;28;20063;-66
2023/03/24 10:33:43;;;;;;;2.78;1.70;;;;;;;15.18;89.11;99277.41;5074653;28;20075;-66
2023/03/24 10:36:11;;;;;;;2.42;1.83;;;;;;;15.28;88.68;99287.59;5074608;28;20036;-66
2023/03/24 10:38:36;;;;;;;2.70;1.88;;;;;;;15.35;87.94;99290.19;5074243;28;20032;-66
2023/03/24 10:41:03;;;;;;;3.88;2.03;;;;;;;15.45;86.48;99285.09;5074773;28;20459;-66
2023/03/24 10:43:30;;;;;;;2.22;1.83;;;;;;;15.60;85.76;99284.69;5074599;28;20074;-65
2023/03/24 10:45:57;;;;;;;2.95;1.95;;;;;;;15.79;86.81;99288.16;5074258;28;20029;-66
2023/03/24 10:48:48;;;;;;;4.03;2.10;;;;;;;15.94;82.86;99288.53;5074214;28;20127;-65
2023/03/24 10:51:25;;;;;;;4.32;1.75;;;;;;;16.04;85.52;99282.56;5074439;28;20174;-66
2023/03/24 10:54:09;;;;;;;4.60;2.33;;;;;;;16.06;85.17;99318.09;5074544;28;20527;-66
2023/03/24 10:56:44;;;;;;;3.88;2.08;;;;;;;16.10;82.79;99316.56;5074271;28;20282;-67
2023/03/24 10:59:19;;;;;;;5.85;1.75;;;;;;;16.15;81.04;99311.31;5074005;28;20147;-66
2023/03/24 11:01:45;;;;;;;4.63;1.77;;;;;;;16.36;79.79;99307.25;5074135;28;20504;-67
2023/03/24 11:04:13;;;;;;;2.97;1.70;;;;;;;16.30;79.02;99295.59;5074199;28;20033;-66
2023/03/24 11:07:03;;;;;;;1.40;1.30;;;;;;;16.02;80.86;99318.53;5074012;28;20037;-66
2023/03/24 11:09:37;;;;;;;2.40;1.55;;;;;;;15.84;82.98;99318.63;5073958;28;20036;-65
2023/03/24 11:12:03;;;;;;;3.30;1.50;;;;;;;15.88;89.15;99313.63;5074132;28;20424;-66
2023/03/24 11:14:29;;;;;;;2.35;1.45;;;;;;;16.33;91.55;99324.66;5073860;28;20405;-66
2023/03/24 11:17:25;;;;;;;3.08;1.52;;;;;;;16.38;88.00;99338.22;5073615;28;20048;-66
2023/03/24 11:19:56;;;;;;;3.40;1.65;;;;;;;16.23;86.41;99327.09;5064777;28;20068;-66
2023/03/24 11:22:23;;;;;;;2.20;1.65;;;;;;;16.24;87.83;99331.44;5073734;28;20048;-67
2023/03/24 11:24:53;;;;;;;3.67;1.70;;;;;;;16.05;87.28;99356.75;5073871;28;20036;-67
2023/03/24 11:27:19;;;;;;;3.13;1.35;;;;;;;15.74;87.86;99364.81;5073352;28;20036;-66
2023/03/24 11:29:52;;;;;;;2.15;1.60;;;;;;;15.48;89.13;99347.19;5073662;28;20496;-64
2023/03/24 11:32:23;;;;;;;2.40;1.40;;;;;;;15.27;90.92;99336.94;5073421;28;20122;-68
2023/03/24 11:35:00;;;;;;;2.42;1.27;;;;;;;15.25;92.13;99343.56;5073760;28;20051;-64
2023/03/24 11:37:32;;;;;;;1.67;1.20;;;;;;;15.12;92.09;99334.63;5073294;28;20048;-65
2023/03/24 11:40:24;;;;;;;3.03;1.48;;;;;;;15.17;93.40;99350.06;5073494;28;20041;-65
2023/03/24 11:42:57;;;;;;;2.58;1.38;;;;;;;15.20;94.61;99350.44;5071536;28;20066;-66
2023/03/24 11:45:27;;;;;;;2.72;1.30;;;;;;;15.28;93.93;99343.94;5073580;28;20029;-66
2023/03/24 11:47:58;;;;;;;1.90;1.48;;;;;;;15.18;94.10;99351.69;5072967;28;20117;-66
2023/03/24 11:50:27;;;;;;;3.38;1.48;;;;;;;15.19;93.04;99347.97;5073251;28;20120;-65
2023/03/24 11:53:15;;;;;;;2.78;1.85;;;;;;;15.12;92.62;99342.66;5073171;28;20178;-67
2023/03/24 11:55:53;;;;;;;3.75;1.80;;;;;;;15.19;93.34;99366.72;5073117;28;20044;-66
2023/03/24 11:58:26;;;;;;;2.13;1.38;;;;;;;15.14;93.74;99407.66;5072818;28;20043;-68
2023/03/24 12:01:19;;;;;;;2.83;0.80;;;;;;;14.71;88.60;99412.22;5073320;28;20037;-66
2023/03/24 12:03:50;;;;;;;2.63;0.90;;;;;;;13.84;92.26;99428.88;5072869;28;20499;-67
2023/03/24 12:06:40;;;;;;;4.45;0.77;;;;;;;13.60;93.88;99434.13;5072745;28;20040;-67
2023/03/24 12:09:14;;;;;;;4.00;0.70;;;;;;;13.16;97.06;99436.50;5072749;28;20047;-65
2023/03/24 12:11:51;;;;;;;4.70;1.13;;;;;;;12.61;100.00;99446.66;5072846;28;20044;-66
2023/03/24 12:15:04;;;;;;;3.58;1.25;;;;;;;12.16;100.00;99446.41;5072699;28;20028;-66
2023/03/24 12:18:05;;;;;;;1.98;0.77;;;;;;;11.93;100.00;99433.44;5040396;28;20044;-66
2023/03/24 12:20:45;;;;;;;2.33;0.90;;;;;;;11.86;100.00;99419.22;5054533;28;20544;-65
2023/03/24 12:23:13;;;;;;;2.10;0.63;;;;;;;11.61;100.00;99437.59;5093114;28;20047;-66
2023/03/24 12:26:05;;;;;;;3.95;0.93;;;;;;;11.70;100.00;99438.25;5091622;28;20038;-65
2023/03/24 12:28:40;;;;;;;3.30;1.10;;;;;;;11.54;100.00;99428.75;5092600;28;20036;-65
2023/03/24 12:31:22;;;;;;;2.58;0.93;;;;;;;11.50;100.00;99434.69;5092130;28;20081;-66
2023/03/24 12:34:20;;;;;;;1.48;0.98;;;;;;;11.44;100.00;99427.47;5092612;28;20036;-66
2023/03/24 12:37:23;;;;;;;;;;;;;;;11.48;100.00;99436.72;5091109;28;20043;-65
2023/03/24 12:40:11;;;;;;;1.38;1.25;;;;;;;11.23;100.00;99439.06;5083152;28;19951;-67
2023/03/24 12:42:45;;;;;;;1.95;1.08;;;;;;;11.20;100.00;99434.94;5082729;28;20019;-65
2023/03/24 12:45:38;;;;;;;1.83;0.95;;;;;;;11.07;100.00;99424.19;5082942;28;20397;-65
2023/03/24 12:48:09;;;;;;;6.13;1.63;;;;;;;11.03;100.00;99421.13;5082136;28;20028;-64
2023/03/24 12:50:41;;;;;;;2.60;0.98;;;;;;;10.95;100.00;99433.75;5080937;28;20089;-63
2023/03/24 12:53:25;;;;;;;3.20;0.82;;;;;;;10.86;100.00;99417.94;5081440;28;20035;-66
2023/03/24 12:55:53;;;;;;;2.33;1.27;;;;;;;10.70;100.00;99433.41;5081804;28;20067;-66
2023/03/24 12:58:25;;;;;;;2.38;1.17;;;;;;;10.68;100.00;99451.41;5081831;28;20074;-65
2023/03/24 13:01:06;;;;;;;7.28;1.48;;;;;;;10.62;100.00;99452.16;5082825;28;20024;-66
2023/03/24 13:03:40;;;;;;;1.08;0.88;;;;;;;10.58;100.00;99433.09;5082882;28;20036;-63
2023/03/24 13:06:29;;;;;;;6.10;1.50;;;;;;;10.60;100.00;99439.88;5080053;28;20042;-65
2023/03/24 13:09:09;;;;;;;3.72;0.75;;;;;;;10.64;100.00;99444.81;5081006;28;20140;-65
2023/03/24 13:11:53;;;;;;;4.15;1.10;;;;;;;10.64;100.00;99432.31;5081182;28;20039;-65
2023/03/24 13:14:26;;;;;;;2.05;0.82;;;;;;;10.73;100.00;99436.47;5081708;28;20060;-65
2023/03/24 13:16:59;;;;;;;2.08;1.27;;;;;;;10.74;100.00;99426.66;5076888;28;20351;-63
2023/03/24 13:19:25;;;;;;;4.18;1.58;;;;;;;10.80;100.00;99417.88;5080909;28;20039;-64
2023/03/24 13:21:53;;;;;;;7.40;1.42;;;;;;;10.93;100.00;99420.63;5082640;28;20032;-63
2023/03/24 13:24:20;;;;;;;3.15;1.33;;;;;;;11.03;100.00;99426.44;5072805;28;20496;-63
2023/03/24 13:26:54;;;;;;;4.43;1.73;;;;;;;11.12;100.00;99425.25;5091928;28;20106;-65
2023/03/24 13:29:41;;;;;;;2.15;1.20;;;;;;;11.26;100.00;99431.47;5091942;28;20044;-63
2023/03/24 13:32:32;;;;;;;4.28;1.30;;;;;;;11.34;100.00;99431.31;5092000;28;20053;-63
2023/03/24 13:35:08;;;;;;;7.28;1.77;;;;;;;11.30;100.00;99432.75;5091595;28;20115;-65
2023/03/24 13:37:40;;;;;;;3.45;1.27;;;;;;;11.35;100.00;99424.16;5081889;28;20041;-66
2023/03/24 13:40:18;;;;;;;3.22;1.23;;;;;;;11.37;100.00;99422.09;5080984;28;20098;-66
2023/03/24 13:42:53;;;;;;;2.30;1.20;;;;;;;11.39;100.00;99410.22;5081903;28;20033;-62
2023/03/24 13:45:49;;;;;;;4.43;1.48;;;;;;;11.46;100.00;99410.25;5086200;28;20036;-64
2023/03/24 13:48:40;;;;;;;1.00;0.77;;;;;;;11.48;100.00;99407.41;5075347;28;20071;-65
2023/03/24 13:51:24;;;;;;;5.60;1.85;;;;;;;11.56;100.00;99416.03;5075541;28;20286;-63
2023/03/24 13:53:58;;;;;;;3.58;1.80;;;;;;;11.53;100.00;99408.41;5075648;28;20112;-63
2023/03/24 13:56:32;;;;;;;7.10;1.88;;;;;;;11.60;100.00;99421.78;5079445;28;20446;-65
2023/03/24 13:58:58;;;;;;;6.40;2.10;;;;;;;11.67;100.00;99426.16;5083495;28;20437;-65
2023/03/24 14:01:46;;;;;;;5.43;1.70;;;;;;;11.79;100.00;99425.53;5084996;28;20116;-64
2023/03/24 14:04:18;;;;;;;5.38;1.50;;;;;;;11.98;100.00;99427.47;5086195;28;20508;-65
2023/03/24 14:06:53;;;;;;;3.95;1.60;;;;;;;12.14;100.00;99421.75;5083466;28;20035;-67
2023/03/24 14:09:29;;;;;;;2.17;1.33;;;;;;;12.13;100.00;99422.78;5084868;28;20077;-65
2023/03/24 14:11:55;;;;;;;2.42;1.20;;;;;;;12.22;100.00;99410.88;5082674;28;20031;-65
2023/03/24 14:14:28;;;;;;;3.30;1.50;;;;;;;12.23;100.00;99412.53;5085660;28;20028;-66
2023/03/24 14:16:56;;;;;;;6.13;1.95;;;;;;;12.28;100.00;99413.78;5085330;28;20050;-63
2023/03/24 14:19:29;;;;;;;5.13;1.55;;;;;;;12.30;100.00;99409.84;5089585;28;20035;-63
2023/03/24 14:22:07;;;;;;;7.03;1.75;;;;;;;12.36;100.00;99398.34;5095384;28;20398;-64
2023/03/24 14:24:34;;;;;;;4.35;1.88;;;;;;;12.38;100.00;99390.13;5095268;28;20123;-65
2023/03/24 14:26:59;;;;;;;3.78;1.83;;;;;;;12.47;100.00;99395.06;5094935;28;20078;-65
2023/03/24 14:29:37;;;;;;;8.02;1.58;;;;;;;12.57;100.00;99385.81;5095034;28;20063;-65
2023/03/24 14:32:03;;;;;;;6.15;2.42;;;;;;;12.62;100.00;99373.50;5095049;28;20028;-64
2023/03/24 14:34:29;;;;;;;2.92;1.60;;;;;;;12.83;100.00;99366.25;5095050;28;20105;-66
2023/03/24 14:37:02;;;;;;;2.33;1.52;;;;;;;12.87;100.00;99370.16;5094775;28;20403;-67
2023/03/24 14:39:46;;;;;;;6.97;2.00;;;;;;;13.03;100.00;99364.34;5094929;28;20071;-64
2023/03/24 14:42:49;;;;;;;3.00;1.65;;;;;;;13.17;100.00;99365.97;5094897;28;20024;-66
2023/03/24 14:45:41;;;;;;;5.30;1.75;;;;;;;13.24;100.00;99365.97;5094833;28;20428;-65
2023/03/24 14:48:22;;;;;;;2.53;1.58;;;;;;;13.23;100.00;99375.00;5094457;28;20028;-66
2023/03/24 14:50:49;;;;;;;3.15;1.50;;;;;;;13.24;100.00;99382.03;5094693;28;20039;-65
2023/03/24 14:53:18;;;;;;;2.88;1.38;;;;;;;13.19;100.00;99379.13;5094287;28;20028;-65
2023/03/24 14:55:46;;;;;;;3.53;1.55;;;;;;;13.15;100.00;99381.38;5094637;28;20035;-64
2023/03/24 14:58:34;;;;;;;3.58;1.48;;;;;;;13.12;100.00;99368.44;5094340;28;20036;-65
2023/03/24 15:01:04;;;;;;;2.97;1.05;;;;;;;13.22;100.00;99370.69;5094466;28;20542;-64
2023/03/24 15:03:39;;;;;;;2.97;1.50;;;;;;;13.17;100.00;99370.47;5094410;28;20063;-65
2023/03/24 15:06:21;;;;;;;2.25;1.50;;;;;;;13.17;100.00;99368.66;5094525;28;20046;-65
2023/03/24 15:08:52;;;;;;;2.97;1.52;;;;;;;13.22;100.00;99362.66;5094187;28;20036;-65
2023/03/24 15:11:23;;;;;;;2.42;1.08;;;;;;;13.17;100.00;99367.78;5094194;28;20439;-65
2023/03/24 15:13:53;;;;;;;2.72;1.20;;;;;;;13.19;100.00;99363.06;5094281;28;20489;-65
2023/03/24 15:16:24;;;;;;;1.58;1.20;;;;;;;13.22;100.00;99366.16;5094151;28;20040;-66
2023/03/24 15:18:56;;;;;;;5.95;1.45;;;;;;;13.26;100.00;99366.56;5093893;28;20485;-65
2023/03/24 15:21:29;;;;;;;4.65;1.92;;;;;;;13.24;100.00;99361.44;5094108;28;20032;-63
2023/03/24 15:23:56;;;;;;;2.58;1.60;;;;;;;13.24;100.00;99345.41;5094095;28;20111;-65
2023/03/24 15:26:23;;;;;;;2.72;1.23;;;;;;;13.38;100.00;99348.03;5094000;28;20047;-64
2023/03/24 15:28:57;;;;;;;3.33;1.20;;;;;;;13.40;100.00;99352.09;5093793;28;20097;-65
2023/03/24 15:31:24;;;;;;;2.20;1.58;;;;;;;13.48;100.00;99353.72;5093991;28;20082;-66
2023/03/24 15:33:51;;;;;;;2.00;1.08;;;;;;;13.51;100.00;99350.63;5093957;28;20039;-66
2023/03/24 15:36:21;;;;;;;;;;;;;;;13.45;100.00;99352.28;5094735;28;20036;-66
2023/03/24 15:38:51;;;;;;;2.85;1.42;;;;;;;13.40;100.00;99340.59;5093591;28;20379;-65
2023/03/24 15:41:20;;;;;;;2.03;1.13;;;;;;;13.36;100.00;99353.56;5094008;28;20041;-66
2023/03/24 15:43:50;;;;;;;2.55;1.20;;;;;;;13.24;100.00;99358.78;5093671;28;20574;-66
2023/03/24 15:46:26;;;;;;;3.58;1.63;;;;;;;13.22;100.00;99351.97;5093719;28;20044;-64
2023/03/24 15:48:52;;;;;;;3.50;1.55;;;;;;;13.26;100.00;99348.69;5093812;28;20524;-63
2023/03/24 15:51:18;;;;;;;1.60;0.90;;;;;;;13.37;100.00;99347.19;5093662;28;20056;-65
2023/03/24 15:53:48;;;;;;;3.38;1.30;;;;;;;13.46;100.00;99339.75;5093710;28;20469;-66
2023/03/24 15:56:25;;;;;;;3.05;1.48;;;;;;;13.50;100.00;99335.63;5093353;28;20040;-65
2023/03/24 15:59:06;;;;;;;2.30;1.60;;;;;;;13.54;100.00;99328.78;5093213;28;20050;-66
2023/03/24 16:01:37;;;;;;;1.52;1.13;;;;;;;13.56;100.00;99322.19;5093398;28;20120;-66
2023/03/24 16:04:17;;;;;;;6.18;1.65;;;;;;;13.63;100.00;99329.34;5093381;28;20044;-66
2023/03/24 16:06:47;;;;;;;1.63;1.13;;;;;;;13.60;100.00;99327.09;5092353;28;20031;-69
2023/03/24 16:09:15;;;;;;;1.95;1.42;;;;;;;13.67;100.00;99330.56;5093217;28;20032;-66
2023/03/24 16:11:41;;;;;;;3.25;1.30;;;;;;;13.68;100.00;99327.66;5093120;28;20024;-65
2023/03/24 16:14:27;;;;;;;2.03;0.98;;;;;;;13.69;100.00;99323.13;5093135;28;20047;-65
2023/03/24 16:16:54;;;;;;;2.72;1.20;;;;;;;13.66;99.21;99318.22;5092893;28;20032;-65
2023/03/24 16:19:19;;;;;;;1.93;1.20;;;;;;;13.73;98.33;99322.50;5092950;28;20040;-65
2023/03/24 16:21:45;;;;;;;3.63;1.52;;;;;;;13.78;99.79;99325.34;5092955;28;20032;-65
2023/03/24 16:24:10;;;;;;;1.98;0.80;;;;;;;13.72;98.05;99325.38;5092827;28;20481;-65
2023/03/24 16:26:35;;;;;;;2.90;2.00;;;;;;;13.78;98.04;99325.34;5092869;28;20135;-67
2023/03/24 16:29:15;;;;;;;2.75;1.10;;;;;;;13.78;97.33;99336.06;5092599;28;20036;-64
2023/03/24 16:31:42;;;;;;;3.58;1.35;;;;;;;13.83;97.04;99346.13;5092739;28;20028;-66
2023/03/24 16:34:08;;;;;;;4.78;1.73;;;;;;;13.79;96.79;99334.19;5092770;28;20028;-63
2023/03/24 16:36:33;;;;;;;1.33;0.90;;;;;;;13.80;96.92;99322.44;5091229;28;20554;-66
2023/03/24 16:39:00;;;;;;;2.17;1.02;;;;;;;13.71;96.35;99329.91;5074223;28;20036;-65
2023/03/24 16:41:26;;;;;;;3.95;1.55;;;;;;;13.75;95.80;99319.59;5092717;28;20031;-66
2023/03/24 16:43:52;;;;;;;2.58;1.30;;;;;;;13.74;95.62;99318.78;5092658;28;20032;-65
2023/03/24 16:46:27;;;;;;;2.28;1.13;;;;;;;13.70;94.60;99316.75;5092573;28;20032;-66
2023/03/24 16:48:53;;;;;;;2.08;1.40;;;;;;;13.63;94.21;99318.63;5092157;28;20092;-63
2023/03/24 16:51:18;;;;;;;4.47;1.30;;;;;;;13.57;94.05;99323.84;5092357;28;20115;-66
2023/03/24 16:53:45;;;;;;;3.30;1.13;;;;;;;13.58;93.43;99327.31;5092473;28;20040;-65
2023/03/24 16:56:17;;;;;;;4.65;1.27;;;;;;;13.52;93.60;99329.00;5092467;28;20036;-58
2023/03/24 16:58:44;;;;;;;1.35;1.13;;;;;;;13.49;93.91;99332.09;5092143;28;20044;-66
2023/03/24 17:01:26;;;;;;;1.60;1.10;;;;;;;13.39;93.65;99339.78;5092309;28;20040;-60
2023/03/24 17:04:17;;;;;;;2.25;1.50;;;;;;;13.36;93.42;99339.38;5091079;28;20057;-64
2023/03/24 17:06:49;;;;;;;1.38;1.10;;;;;;;13.29;93.79;99348.25;5089431;28;20420;-65
2023/03/24 17:09:15;;;;;;;2.20;1.35;;;;;;;13.25;92.76;99335.53;5092174;28;20059;-64
2023/03/24 17:11:43;;;;;;;2.30;1.30;;;;;;;13.22;94.30;99352.78;5092212;28;20035;-64
2023/03/24 17:14:11;;;;;;;;;;;;;;;13.22;93.74;99350.13;5092562;28;20040;-64